Time;durP1;ratioP1;P1;durP2;ratioP2;P2;SDS_P1;SDS_P2;PMS_P1;PMS_P2;Temp;Humidity;BMP_temperature;BMP_pressure;BME280_temperature;BME280_humidity;BME280_pressure;Samples;Min_cycle;Max_cycle;Signal;HPM_P1;HPM_P2
2021/12/17 00:00:29;;;;;;;89.43;27.00;;;8.70;99.90;;;;;;5131751;28;20601;-89
2021/12/17 00:05:45;;;;;;;68.70;25.15;;;8.70;99.90;;;;;;5113252;28;20043;-88
2021/12/17 00:08:12;;;;;;;69.35;24.92;;;8.70;99.90;;;;;;5095274;28;20031;-88
2021/12/17 00:10:38;;;;;;;58.00;24.35;;;8.70;99.90;;;;;;5096330;28;20511;-88
2021/12/17 00:13:05;;;;;;;59.88;23.92;;;8.70;99.90;;;;;;5131644;28;20035;-88
2021/12/17 00:15:31;;;;;;;70.53;26.60;;;8.80;99.90;;;;;;5096130;28;20484;-88
2021/12/17 00:18:03;;;;;;;63.65;25.58;;;8.80;99.90;;;;;;5113319;28;20125;-88
2021/12/17 00:50:55;;;;;;;52.65;22.60;;;8.90;99.90;;;;;;5135949;27;20047;-87
2021/12/17 00:53:20;;;;;;;55.67;21.08;;;8.90;99.90;;;;;;5118047;27;20047;-88
2021/12/17 00:55:47;;;;;;;70.97;24.10;;;8.90;99.90;;;;;;5117492;27;20050;-88
2021/12/17 00:58:13;;;;;;;52.47;20.60;;;8.90;99.90;;;;;;5100177;27;20042;-88
2021/12/17 01:00:38;;;;;;;60.85;23.20;;;8.90;99.90;;;;;;5100583;27;20139;-88
2021/12/17 01:03:04;;;;;;;48.30;21.08;;;8.90;99.90;;;;;;5117118;27;20125;-88
2021/12/17 01:05:31;;;;;;;47.30;20.48;;;8.90;99.90;;;;;;5100355;27;20503;-88
2021/12/17 01:07:59;;;;;;;47.45;20.02;;;8.90;99.90;;;;;;5099917;27;20059;-88
2021/12/17 01:10:30;;;;;;;46.30;19.63;;;8.90;99.90;;;;;;5106675;27;20035;-88
2021/12/17 01:12:56;;;;;;;40.70;17.50;;;8.90;99.90;;;;;;5104507;27;20031;-88
2021/12/17 01:15:23;;;;;;;37.65;16.20;;;8.90;99.90;;;;;;5098813;27;20035;-88
2021/12/17 01:17:52;;;;;;;40.58;19.02;;;8.90;99.90;;;;;;5118577;27;20065;-88
2021/12/17 01:20:35;;;;;;;37.33;16.67;;;8.90;99.90;;;;;;5137417;27;20125;-88
2021/12/17 01:25:49;;;;;;;35.85;16.48;;;9.00;99.90;;;;;;5136579;27;20047;-88
2021/12/17 01:36:30;;;;;;;33.33;15.23;;;9.00;99.90;;;;;;5136874;27;20035;-88
2021/12/17 01:40:13;;;;;;;32.42;13.73;;;9.00;99.90;;;;;;5119575;27;20412;-88
2021/12/17 01:42:13;;;;;;;31.10;13.68;;;9.10;99.90;;;;;;5136753;27;20380;-88
2021/12/17 01:44:41;;;;;;;29.75;13.30;;;9.00;99.90;;;;;;5135995;27;20138;-88
2021/12/17 01:47:09;;;;;;;29.30;13.27;;;9.00;99.90;;;;;;5118698;27;20722;-88
2021/12/17 02:00:27;;;;;;;29.13;12.45;;;9.10;99.90;;;;;;5136167;27;20047;-88
2021/12/17 02:02:56;;;;;;;28.77;13.63;;;9.10;99.90;;;;;;5118778;27;20041;-88
2021/12/17 02:05:22;;;;;;;28.98;12.32;;;9.10;99.90;;;;;;5118304;27;20464;-88
2021/12/17 02:07:51;;;;;;;32.75;13.18;;;9.10;99.90;;;;;;5094404;28;20031;-88
2021/12/17 02:31:57;;;;;;;23.65;10.45;;;9.10;99.90;;;;;;5094372;28;20047;-88
2021/12/17 02:37:12;;;;;;;20.15;10.55;;;9.10;99.90;;;;;;5112562;28;20480;-88
2021/12/17 02:47:39;;;;;;;20.95;9.57;;;9.20;99.90;;;;;;5111135;28;20500;-88
2021/12/17 02:50:06;;;;;;;21.83;9.93;;;9.20;99.90;;;;;;5093306;28;20040;-88
2021/12/17 02:52:36;;;;;;;20.45;9.55;;;9.20;99.90;;;;;;5077259;28;20127;-88
2021/12/17 02:55:04;;;;;;;18.10;9.13;;;9.20;99.90;;;;;;5076228;28;20036;-88
2021/12/17 02:57:30;;;;;;;24.13;9.68;;;9.20;99.90;;;;;;5094231;28;20040;-88
2021/12/17 02:59:56;;;;;;;20.50;9.00;;;9.20;99.90;;;;;;5077123;28;20464;-88
2021/12/17 03:02:25;;;;;;;17.73;8.63;;;9.20;99.90;;;;;;5077404;28;20050;-88
2021/12/17 03:04:52;;;;;;;18.42;9.18;;;9.20;99.90;;;;;;5112160;28;20511;-88
2021/12/17 03:07:17;;;;;;;22.83;8.98;;;9.20;99.90;;;;;;5118938;27;20184;-88
2021/12/17 03:12:21;;;;;;;19.65;8.88;;;9.20;99.90;;;;;;5131262;27;20067;-88
2021/12/17 03:14:58;;;;;;;20.95;8.82;;;9.20;99.90;;;;;;5113681;27;20031;-88
2021/12/17 03:17:53;;;;;;;21.45;10.07;;;9.10;99.90;;;;;;5097144;27;20035;-88
2021/12/17 03:25:40;;;;;;;22.75;9.90;;;9.00;99.90;;;;;;5130964;27;20043;-88
2021/12/17 03:28:06;;;;;;;26.98;9.93;;;9.00;99.90;;;;;;5114309;27;20170;-88
2021/12/17 03:30:32;;;;;;;22.42;9.45;;;9.00;99.90;;;;;;5114080;27;20078;-87
2021/12/17 03:32:57;;;;;;;19.88;9.45;;;9.00;99.90;;;;;;5097068;27;20116;-88
2021/12/17 03:35:23;;;;;;;21.77;10.05;;;9.00;99.90;;;;;;5113125;27;20035;-88
2021/12/17 03:37:49;;;;;;;19.48;9.85;;;9.00;99.90;;;;;;5132020;27;20111;-88
2021/12/17 03:40:17;;;;;;;22.35;10.50;;;9.00;99.90;;;;;;5132001;27;20043;-88
2021/12/17 03:42:47;;;;;;;22.10;9.30;;;9.00;99.90;;;;;;5113653;27;20119;-88
2021/12/17 03:45:15;;;;;;;21.27;10.00;;;9.00;99.90;;;;;;5113865;27;20043;-88
2021/12/17 03:47:40;;;;;;;21.73;9.85;;;9.10;99.90;;;;;;5114652;27;20039;-88
2021/12/17 03:50:06;;;;;;;21.55;9.40;;;9.10;99.90;;;;;;5097556;27;20043;-88
2021/12/17 03:52:32;;;;;;;19.80;8.82;;;9.10;99.90;;;;;;5103357;28;20061;-88
2021/12/17 03:54:58;;;;;;;21.10;9.52;;;9.00;99.90;;;;;;5105936;28;20496;-88
2021/12/17 03:57:23;;;;;;;21.30;9.65;;;9.10;99.90;;;;;;5131813;27;20071;-88
2021/12/17 03:59:50;;;;;;;20.38;10.27;;;9.10;99.90;;;;;;5113588;28;20084;-88
2021/12/17 04:02:16;;;;;;;21.45;9.25;;;9.10;99.90;;;;;;5113769;28;20084;-88
2021/12/17 04:04:43;;;;;;;22.52;9.20;;;9.10;99.90;;;;;;5096675;28;20559;-88
2021/12/17 04:07:08;;;;;;;22.13;9.10;;;9.10;99.90;;;;;;5095453;28;20039;-88
2021/12/17 04:09:34;;;;;;;25.50;10.02;;;9.10;99.90;;;;;;5096210;28;20032;-88
2021/12/17 04:12:07;;;;;;;28.67;11.10;;;9.10;99.90;;;;;;5131812;28;20046;-88
2021/12/17 04:14:40;;;;;;;20.67;9.90;;;9.10;99.90;;;;;;5112920;28;20115;-88
2021/12/17 04:17:06;;;;;;;20.30;9.48;;;9.10;99.90;;;;;;5096153;28;20118;-87
2021/12/17 04:19:33;;;;;;;22.90;10.35;;;9.10;99.90;;;;;;5096272;28;20477;-88
2021/12/17 04:21:59;;;;;;;21.30;10.73;;;9.10;99.90;;;;;;5096155;28;20043;-88
2021/12/17 04:24:24;;;;;;;20.33;10.05;;;9.10;99.90;;;;;;5096833;28;20416;-88
2021/12/17 04:26:50;;;;;;;23.83;10.35;;;9.10;99.90;;;;;;5096682;28;20453;-88
2021/12/17 04:29:17;;;;;;;23.25;10.02;;;9.10;99.90;;;;;;5096529;28;20484;-88
2021/12/17 04:31:42;;;;;;;20.85;9.48;;;9.10;99.90;;;;;;5096323;28;20043;-88
2021/12/17 04:34:11;;;;;;;22.38;10.05;;;9.10;99.90;;;;;;5096060;28;20036;-88
2021/12/17 04:36:37;;;;;;;22.65;10.20;;;9.10;99.90;;;;;;5131187;28;20571;-88
2021/12/17 04:39:04;;;;;;;22.10;10.27;;;9.20;99.90;;;;;;5131281;28;20039;-88
2021/12/17 04:44:34;;;;;;;25.17;9.95;;;9.20;99.90;;;;;;5031418;28;20045;-88
2021/12/17 04:57:16;;;;;;;21.60;9.93;;;9.20;99.90;;;;;;5081428;28;20407;-88
2021/12/17 04:58:00;;;;;;;23.67;10.02;;;9.20;99.90;;;;;;5129907;28;20039;-88
2021/12/17 05:00:29;;;;;;;24.25;10.82;;;9.20;99.90;;;;;;5113195;28;20042;-88
2021/12/17 05:02:58;;;;;;;20.02;9.45;;;9.10;99.90;;;;;;5096289;28;20404;-89
2021/12/17 05:05:28;;;;;;;21.67;10.52;;;9.20;99.90;;;;;;5096199;28;20035;-88
2021/12/17 05:08:02;;;;;;;21.85;10.10;;;9.20;99.90;;;;;;5095718;28;20045;-88
2021/12/17 05:18:37;;;;;;;26.15;11.30;;;9.10;99.90;;;;;;5133455;27;20035;-89
2021/12/17 05:21:07;;;;;;;25.90;12.10;;;9.10;99.90;;;;;;5093632;28;20492;-88
2021/12/17 05:23:39;;;;;;;24.20;10.55;;;9.10;99.90;;;;;;5078498;28;20495;-87
2021/12/17 05:26:07;;;;;;;21.35;10.07;;;9.00;99.90;;;;;;5095881;28;20040;-88
2021/12/17 05:28:33;;;;;;;24.40;10.57;;;9.00;99.90;;;;;;5078420;28;20140;-87
2021/12/17 05:30:59;;;;;;;25.20;10.25;;;9.00;99.90;;;;;;5112649;28;20085;-87
2021/12/17 05:33:26;;;;;;;19.75;10.30;;;9.00;99.90;;;;;;5078019;28;20043;-88
2021/12/17 05:35:54;;;;;;;21.42;9.90;;;9.10;99.90;;;;;;5128797;27;20035;-87
2021/12/17 05:38:23;;;;;;;21.27;9.63;;;9.00;99.90;;;;;;5101273;27;20042;-87
2021/12/17 05:40:49;;;;;;;21.67;9.82;;;9.00;99.90;;;;;;5117892;27;20032;-87
2021/12/17 05:43:15;;;;;;;23.38;10.38;;;9.00;99.90;;;;;;5100459;27;20054;-88
2021/12/17 05:48:13;;;;;;;26.33;9.98;;;9.00;99.90;;;;;;5129838;27;20035;-88
2021/12/17 05:50:41;;;;;;;25.45;10.02;;;9.00;99.90;;;;;;5114800;27;20054;-88
2021/12/17 05:53:08;;;;;;;21.90;9.93;;;9.00;99.90;;;;;;5094677;28;20088;-87
2021/12/17 05:55:35;;;;;;;20.35;10.27;;;8.90;99.90;;;;;;5104529;27;20057;-87
2021/12/17 05:58:03;;;;;;;19.95;9.48;;;8.90;99.90;;;;;;5118848;27;20039;-88
2021/12/17 06:00:30;;;;;;;21.77;9.95;;;8.90;99.90;;;;;;5135709;27;20125;-87
2021/12/17 06:02:56;;;;;;;24.38;10.02;;;8.90;99.90;;;;;;5118267;27;20043;-87
2021/12/17 06:05:22;;;;;;;21.90;10.00;;;8.90;99.90;;;;;;5135556;27;20049;-88
2021/12/17 06:07:48;;;;;;;22.40;10.27;;;8.90;99.90;;;;;;5105598;27;20039;-88
2021/12/17 06:10:14;;;;;;;21.17;10.13;;;8.90;99.90;;;;;;5115271;27;20035;-88
2021/12/17 06:12:40;;;;;;;23.05;9.45;;;8.90;99.90;;;;;;5098119;27;20054;-87
2021/12/17 06:15:09;;;;;;;26.42;12.45;;;8.90;99.90;;;;;;5114433;27;20043;-87
2021/12/17 06:17:35;;;;;;;18.38;9.25;;;8.80;99.90;;;;;;5097460;27;20045;-87
2021/12/17 06:20:00;;;;;;;22.50;9.93;;;8.90;99.90;;;;;;5097758;27;20061;-88
2021/12/17 06:22:26;;;;;;;21.58;10.18;;;8.80;99.90;;;;;;5097391;27;20043;-88
2021/12/17 06:24:52;;;;;;;23.52;10.27;;;8.80;99.90;;;;;;5133210;27;20092;-88
2021/12/17 06:27:19;;;;;;;25.08;11.02;;;8.80;99.90;;;;;;5133216;27;20427;-88
2021/12/17 06:29:46;;;;;;;24.73;10.55;;;8.80;99.90;;;;;;5097724;27;20046;-88
2021/12/17 06:32:12;;;;;;;28.27;11.40;;;8.80;99.90;;;;;;5115671;27;20031;-88
2021/12/17 06:34:38;;;;;;;21.92;10.30;;;8.80;99.90;;;;;;5097038;27;20411;-88
2021/12/17 06:37:04;;;;;;;24.13;10.43;;;8.80;99.90;;;;;;5097594;27;20039;-88
2021/12/17 06:39:30;;;;;;;26.30;11.00;;;8.80;99.90;;;;;;5115990;27;20505;-87
2021/12/17 06:41:56;;;;;;;22.92;11.20;;;8.80;99.90;;;;;;5099066;27;20035;-88
2021/12/17 06:44:24;;;;;;;29.65;11.30;;;8.80;99.90;;;;;;5123477;27;20134;-88
2021/12/17 06:47:09;;;;;;;25.40;10.23;;;8.80;99.90;;;;;;5103134;27;20046;-88
2021/12/17 07:10:51;;;;;;;22.48;9.65;;;8.70;99.90;;;;;;5131072;27;20503;-88
2021/12/17 07:24:26;;;;;;;20.98;10.13;;;8.70;99.90;;;;;;5131842;27;20061;-88
2021/12/17 07:31:12;;;;;;;21.63;10.18;;;8.60;99.90;;;;;;5130902;27;20043;-89
2021/12/17 07:34:51;;;;;;;23.30;10.02;;;8.60;99.90;;;;;;5131550;27;20459;-88
2021/12/17 07:39:43;;;;;;;24.75;9.57;;;8.60;99.90;;;;;;5130497;27;20509;-88
2021/12/17 07:42:09;;;;;;;23.10;10.30;;;8.60;99.90;;;;;;5096554;27;20050;-88
2021/12/17 07:44:35;;;;;;;24.52;10.85;;;8.60;99.90;;;;;;5112959;27;20039;-88
2021/12/17 07:47:01;;;;;;;22.85;10.85;;;8.60;99.90;;;;;;5096114;27;20035;-89
2021/12/17 07:49:27;;;;;;;21.40;9.73;;;8.60;99.90;;;;;;5096454;27;20471;-88
2021/12/17 07:51:53;;;;;;;21.45;10.18;;;8.70;99.90;;;;;;5096831;27;20080;-88
2021/12/17 07:54:18;;;;;;;24.42;10.68;;;8.70;99.90;;;;;;5096576;27;20078;-88
2021/12/17 07:56:45;;;;;;;24.27;11.35;;;8.70;99.90;;;;;;5112717;27;20037;-88
2021/12/17 07:59:13;;;;;;;22.25;10.13;;;8.70;99.90;;;;;;5113414;28;20035;-88
2021/12/17 08:01:40;;;;;;;22.95;10.75;;;8.70;99.90;;;;;;5096360;28;20042;-88
2021/12/17 08:04:07;;;;;;;26.90;10.45;;;8.70;99.90;;;;;;5095632;28;20122;-88
2021/12/17 08:06:34;;;;;;;20.27;10.25;;;8.80;99.90;;;;;;5131312;28;20039;-88
2021/12/17 08:09:00;;;;;;;25.30;11.20;;;8.80;99.90;;;;;;5096312;28;20031;-87
2021/12/17 08:11:26;;;;;;;20.85;10.25;;;8.80;99.90;;;;;;5096006;28;20042;-88
2021/12/17 08:13:54;;;;;;;22.25;10.43;;;8.80;99.90;;;;;;5096746;28;20039;-88
2021/12/17 08:31:58;;;;;;;24.75;11.55;;;8.80;99.90;;;;;;5113157;28;20047;-88
2021/12/17 08:34:24;;;;;;;22.17;10.25;;;8.80;99.90;;;;;;5095933;28;20117;-87
2021/12/17 08:36:50;;;;;;;23.08;10.50;;;8.90;99.90;;;;;;5095617;28;20131;-87
2021/12/17 08:39:16;;;;;;;24.30;10.95;;;8.90;99.90;;;;;;5095606;28;20118;-88
2021/12/17 08:41:42;;;;;;;23.08;10.93;;;8.90;99.90;;;;;;5094564;28;20459;-88
2021/12/17 08:44:08;;;;;;;21.60;10.07;;;8.90;99.90;;;;;;5095438;28;20071;-87
2021/12/17 08:46:35;;;;;;;20.90;10.50;;;8.90;99.90;;;;;;5096400;28;20445;-87
2021/12/17 08:49:02;;;;;;;25.20;10.63;;;9.00;99.90;;;;;;5115323;27;20080;-88
2021/12/17 08:51:28;;;;;;;24.17;10.52;;;9.00;99.90;;;;;;5100147;27;20495;-88
2021/12/17 08:53:54;;;;;;;22.08;10.38;;;9.00;99.90;;;;;;5116692;27;20035;-88
2021/12/17 08:56:22;;;;;;;21.58;10.65;;;9.00;99.90;;;;;;5099622;27;20039;-88
2021/12/17 08:58:51;;;;;;;20.23;9.93;;;9.10;99.90;;;;;;5099090;27;20503;-88
2021/12/17 09:01:17;;;;;;;22.00;10.38;;;9.10;99.90;;;;;;5099290;27;20050;-88
2021/12/17 09:03:43;;;;;;;21.85;10.57;;;9.10;99.90;;;;;;5099601;27;20046;-88
2021/12/17 09:06:08;;;;;;;21.95;10.57;;;9.10;99.90;;;;;;5099611;27;20031;-88
2021/12/17 09:08:34;;;;;;;22.85;10.38;;;9.10;99.90;;;;;;5116457;27;20085;-89
2021/12/17 09:11:00;;;;;;;21.45;11.15;;;9.10;99.90;;;;;;5116806;27;20041;-89
2021/12/17 09:13:27;;;;;;;21.08;10.10;;;9.10;99.90;;;;;;5099741;27;20419;-88
2021/12/17 09:15:58;;;;;;;22.48;10.95;;;9.20;99.90;;;;;;5100486;27;20040;-89
2021/12/17 09:18:24;;;;;;;22.08;11.05;;;9.20;99.90;;;;;;5121039;27;20035;-87
2021/12/17 09:20:50;;;;;;;22.30;10.48;;;9.20;99.90;;;;;;5119995;27;20042;-89
2021/12/17 09:23:16;;;;;;;19.67;10.43;;;9.20;99.90;;;;;;5099319;27;20095;-88
2021/12/17 09:25:42;;;;;;;19.80;10.35;;;9.20;99.90;;;;;;5097055;27;20122;-89
2021/12/17 09:28:08;;;;;;;21.42;10.65;;;9.30;99.90;;;;;;5095325;27;20075;-89
2021/12/17 09:30:34;;;;;;;21.73;10.85;;;9.30;99.90;;;;;;5133214;27;20078;-88
2021/12/17 09:33:00;;;;;;;17.92;9.80;;;9.30;99.90;;;;;;5132904;27;20468;-89
2021/12/17 09:35:26;;;;;;;20.92;10.25;;;9.30;99.90;;;;;;5114345;27;20074;-89
2021/12/17 09:37:52;;;;;;;17.33;8.93;;;9.30;99.90;;;;;;5115406;27;20039;-89
2021/12/17 09:40:17;;;;;;;20.33;10.65;;;9.40;99.90;;;;;;5099281;27;20049;-89
2021/12/17 09:42:45;;;;;;;20.15;9.93;;;9.40;99.90;;;;;;5099002;27;20453;-89
2021/12/17 09:45:13;;;;;;;21.38;9.68;;;9.40;99.90;;;;;;5099087;27;20431;-88
2021/12/17 09:47:40;;;;;;;24.13;10.70;;;9.40;99.90;;;;;;5115960;27;20039;-89
2021/12/17 09:50:06;;;;;;;23.27;10.77;;;9.40;99.90;;;;;;5098560;27;20067;-88
2021/12/17 09:52:32;;;;;;;18.80;9.02;;;9.50;99.90;;;;;;5115929;27;20045;-88
2021/12/17 09:54:58;;;;;;;22.60;11.05;;;9.50;99.90;;;;;;5098281;27;20520;-88
2021/12/17 09:57:25;;;;;;;20.00;9.60;;;9.50;99.90;;;;;;5098439;27;20039;-88
2021/12/17 09:59:52;;;;;;;18.60;9.68;;;9.50;99.90;;;;;;5114847;27;20035;-88
2021/12/17 10:02:19;;;;;;;19.10;9.88;;;9.60;99.90;;;;;;5098940;27;20054;-89
2021/12/17 10:04:45;;;;;;;17.58;8.75;;;9.60;99.90;;;;;;5098197;27;20435;-88
2021/12/17 10:07:25;;;;;;;19.67;9.45;;;9.60;99.90;;;;;;5132042;27;20043;-89
2021/12/17 10:09:59;;;;;;;18.13;9.85;;;9.60;99.90;;;;;;5134049;27;20042;-88
2021/12/17 10:12:26;;;;;;;18.92;9.23;;;9.60;99.90;;;;;;5115658;27;20039;-89
2021/12/17 10:15:02;;;;;;;17.70;9.88;;;9.70;99.90;;;;;;5132501;27;20055;-88
2021/12/17 10:17:28;;;;;;;17.45;9.65;;;9.70;99.90;;;;;;5133377;27;20043;-89
2021/12/17 10:19:53;;;;;;;16.95;8.32;;;9.70;99.90;;;;;;5114921;27;20559;-89
2021/12/17 10:22:20;;;;;;;19.58;10.15;;;9.70;99.90;;;;;;5098227;27;20046;-88
2021/12/17 10:25:07;;;;;;;18.70;9.07;;;9.70;99.90;;;;;;5097918;27;20039;-88
2021/12/17 10:27:36;;;;;;;17.15;9.20;;;9.80;99.90;;;;;;5131194;27;20050;-88
2021/12/17 10:30:18;;;;;;;16.45;9.75;;;9.80;99.90;;;;;;5097495;27;20043;-89
2021/12/17 10:32:51;;;;;;;15.47;7.47;;;9.80;99.90;;;;;;5095304;27;20381;-89
2021/12/17 10:35:19;;;;;;;;;;;9.80;99.90;;;;;;5114992;27;20460;-89
2021/12/17 10:37:55;;;;;;;17.25;9.25;;;9.80;99.90;;;;;;5133011;27;19915;-88
2021/12/17 10:40:39;;;;;;;16.35;9.40;;;9.80;99.90;;;;;;5114426;27;20035;-89
2021/12/17 10:43:22;;;;;;;15.93;8.88;;;9.90;99.90;;;;;;5108032;27;20047;-89
2021/12/17 10:46:06;;;;;;;;;;;9.90;99.90;;;;;;5097200;28;20058;-89
2021/12/17 10:51:22;;;;;;;15.70;8.43;;;9.90;99.90;;;;;;5095002;28;20377;-88
2021/12/17 10:53:54;;;;;;;15.93;8.90;;;9.90;99.90;;;;;;5078257;28;20512;-89
2021/12/17 10:56:25;;;;;;;14.15;6.72;;;9.90;99.90;;;;;;5112061;28;20062;-89
2021/12/17 10:58:55;;;;;;;15.20;7.38;;;10.00;99.90;;;;;;5111176;28;20102;-89
2021/12/17 11:01:45;;;;;;;16.25;7.65;;;10.00;99.90;;;;;;5111293;28;20050;-89
2021/12/17 11:04:38;;;;;;;16.25;8.77;;;10.00;99.90;;;;;;5112540;27;20043;-88
2021/12/17 11:07:14;;;;;;;15.13;7.83;;;10.10;99.90;;;;;;5091891;27;20043;-89
2021/12/17 11:09:57;;;;;;;17.35;9.65;;;10.00;99.90;;;;;;5093970;28;20293;-88
2021/12/17 11:12:23;;;;;;;15.68;8.45;;;10.10;99.90;;;;;;5085835;27;20129;-88
2021/12/17 11:14:50;;;;;;;17.02;9.32;;;10.10;99.90;;;;;;5132121;27;20039;-89
2021/12/17 11:17:18;;;;;;;18.15;9.93;;;10.10;99.90;;;;;;5096365;27;20035;-89
2021/12/17 11:19:44;;;;;;;17.20;9.05;;;10.20;99.90;;;;;;5131609;27;20035;-89
2021/12/17 11:22:10;;;;;;;15.45;8.32;;;10.20;99.90;;;;;;5131819;27;20031;-89
2021/12/17 11:24:37;;;;;;;16.08;8.32;;;10.20;99.90;;;;;;5131598;27;20027;-89
2021/12/17 11:27:05;;;;;;;16.05;7.97;;;10.20;99.90;;;;;;5096832;27;20515;-89
2021/12/17 11:29:31;;;;;;;15.65;8.63;;;10.20;99.90;;;;;;5130548;27;20396;-89
2021/12/17 11:32:00;;;;;;;13.75;7.65;;;10.20;99.90;;;;;;5132111;27;20463;-88
2021/12/17 11:34:27;;;;;;;15.73;9.13;;;10.30;99.90;;;;;;5131453;27;20404;-88
2021/12/17 11:36:53;;;;;;;18.83;9.77;;;10.20;99.90;;;;;;5096394;27;20083;-88
2021/12/17 11:39:30;;;;;;;18.25;9.82;;;10.30;99.90;;;;;;5096720;27;20047;-88
2021/12/17 11:42:18;;;;;;;15.40;8.25;;;10.30;99.90;;;;;;5113087;27;20397;-88
2021/12/17 11:44:53;;;;;;;14.73;7.85;;;10.20;99.90;;;;;;5096741;27;20492;-88
2021/12/17 11:47:20;;;;;;;16.02;8.50;;;10.20;99.90;;;;;;5096426;28;20118;-88
2021/12/17 11:49:52;;;;;;;13.13;7.07;;;10.30;99.90;;;;;;5131830;27;20042;-88
2021/12/17 11:52:44;;;;;;;13.95;7.05;;;10.30;99.90;;;;;;5094232;28;20070;-89
2021/12/17 11:55:35;;;;;;;15.45;7.25;;;10.30;99.90;;;;;;5095027;28;20691;-89
2021/12/17 11:58:12;;;;;;;15.63;8.55;;;10.30;99.90;;;;;;5112710;27;20060;-88
2021/12/17 12:00:41;;;;;;;14.50;7.68;;;10.30;99.90;;;;;;5095164;28;20039;-88
2021/12/17 12:03:12;;;;;;;14.65;7.93;;;10.30;99.90;;;;;;5112866;28;20500;-88
2021/12/17 12:05:40;;;;;;;14.23;6.97;;;10.30;99.90;;;;;;5096142;28;20068;-88
2021/12/17 12:08:24;;;;;;;13.07;7.35;;;10.30;99.90;;;;;;5132023;28;20031;-89
2021/12/17 12:11:28;;;;;;;12.93;7.97;;;10.30;99.90;;;;;;5096992;28;20078;-89
2021/12/17 12:13:55;;;;;;;15.40;7.97;;;10.30;99.90;;;;;;5038899;28;20231;-89
2021/12/17 12:16:24;;;;;;;15.95;7.75;;;10.30;99.90;;;;;;5054222;28;20055;-89
2021/12/17 12:18:50;;;;;;;14.35;8.73;;;10.40;99.90;;;;;;5069812;28;20402;-89
2021/12/17 12:21:23;;;;;;;13.77;7.22;;;10.40;99.90;;;;;;5129695;28;20389;-89
2021/12/17 12:23:53;;;;;;;;;;;10.40;99.90;;;;;;5097488;27;20047;-89
2021/12/17 12:26:23;;;;;;;14.75;7.68;;;10.30;99.90;;;;;;5100577;27;20407;-89
2021/12/17 12:29:05;;;;;;;18.00;9.20;;;10.30;99.90;;;;;;5117698;27;20395;-89
2021/12/17 12:31:33;;;;;;;17.60;9.68;;;10.40;99.90;;;;;;5132463;27;20047;-89
2021/12/17 12:34:02;;;;;;;16.08;9.20;;;10.40;99.90;;;;;;5097134;27;20039;-89
2021/12/17 12:36:57;;;;;;;15.98;8.88;;;10.40;99.90;;;;;;5134421;27;20116;-88
2021/12/17 12:39:29;;;;;;;17.80;9.88;;;10.40;99.90;;;;;;5130817;27;20164;-88
2021/12/17 12:41:55;;;;;;;;;;;10.40;99.90;;;;;;5111702;27;20377;-88
2021/12/17 12:44:39;;;;;;;17.00;10.25;;;10.40;99.90;;;;;;5134851;27;20454;-88
2021/12/17 12:47:06;;;;;;;16.77;10.13;;;10.40;99.90;;;;;;5135725;27;20035;-88
2021/12/17 12:49:59;;;;;;;16.35;9.27;;;10.40;99.90;;;;;;5099933;27;20039;-88
2021/12/17 12:52:30;;;;;;;16.55;7.95;;;10.50;99.90;;;;;;5099418;27;20077;-88
2021/12/17 12:55:01;;;;;;;14.98;8.57;;;10.60;99.90;;;;;;5116663;27;20039;-87
2021/12/17 12:57:31;;;;;;;13.40;7.72;;;10.60;99.90;;;;;;5099254;27;20042;-89
2021/12/17 13:00:07;;;;;;;16.80;8.52;;;10.60;99.90;;;;;;5099540;27;20039;-87
2021/12/17 13:02:33;;;;;;;15.23;7.97;;;10.70;99.90;;;;;;5135405;27;20070;-89
2021/12/17 13:05:00;;;;;;;16.67;9.55;;;10.70;99.90;;;;;;5116115;27;20047;-89
2021/12/17 13:07:56;;;;;;;14.32;8.20;;;10.70;99.90;;;;;;5133867;27;20039;-88
2021/12/17 13:10:25;;;;;;;11.93;6.20;;;10.80;99.90;;;;;;5096383;27;20127;-88
2021/12/17 13:13:04;;;;;;;12.93;7.05;;;10.80;99.90;;;;;;5099231;27;20046;-89
2021/12/17 13:23:20;;;;;;;12.32;5.13;;;10.80;99.90;;;;;;5132755;27;20042;-89
2021/12/17 13:25:45;;;;;;;12.88;6.20;;;10.80;99.90;;;;;;5099162;27;20043;-89
2021/12/17 13:28:13;;;;;;;13.23;5.55;;;10.80;99.90;;;;;;5134842;27;20035;-88
2021/12/17 13:30:38;;;;;;;12.55;6.47;;;10.80;99.90;;;;;;5132974;27;20039;-89
2021/12/17 13:33:04;;;;;;;9.95;4.95;;;10.80;99.90;;;;;;5098987;27;20118;-89
2021/12/17 13:35:34;;;;;;;12.10;6.15;;;10.70;99.90;;;;;;5115386;27;20095;-88
2021/12/17 13:38:01;;;;;;;14.02;6.50;;;10.70;99.90;;;;;;5115744;27;20039;-88
2021/12/17 13:40:27;;;;;;;10.85;5.43;;;10.70;99.90;;;;;;5134419;27;20043;-89
2021/12/17 13:42:55;;;;;;;11.20;5.68;;;10.70;99.90;;;;;;5134606;27;20489;-88
2021/12/17 13:45:21;;;;;;;11.88;6.55;;;10.70;99.90;;;;;;5115682;27;20151;-88
2021/12/17 13:47:50;;;;;;;10.80;5.35;;;10.70;99.90;;;;;;5134286;27;20114;-88
2021/12/17 13:50:32;;;;;;;11.77;6.82;;;10.70;99.90;;;;;;5134036;27;20041;-89
2021/12/17 13:53:14;;;;;;;12.07;6.03;;;10.70;99.90;;;;;;5133873;27;20471;-88
2021/12/17 13:55:46;;;;;;;12.57;6.50;;;10.70;99.90;;;;;;5134238;27;20077;-88
2021/12/17 13:58:13;;;;;;;;;;;10.70;99.90;;;;;;5115426;27;20046;-89
2021/12/17 14:00:46;;;;;;;13.00;6.40;;;10.70;99.90;;;;;;5098539;27;19915;-89
2021/12/17 14:03:14;;;;;;;11.02;5.63;;;10.60;99.90;;;;;;5133938;27;20039;-88
2021/12/17 14:05:41;;;;;;;12.00;6.25;;;10.60;99.90;;;;;;5133784;27;20110;-88
2021/12/17 14:08:15;;;;;;;11.95;6.13;;;10.60;99.90;;;;;;5097831;27;20031;-89
2021/12/17 14:10:42;;;;;;;11.98;4.65;;;10.60;99.90;;;;;;5114736;27;20036;-89
2021/12/17 14:13:20;;;;;;;11.40;5.15;;;10.60;99.90;;;;;;5097314;27;20039;-89
2021/12/17 14:15:47;;;;;;;11.45;6.05;;;10.70;99.90;;;;;;5098021;27;20520;-89
2021/12/17 14:18:24;;;;;;;10.63;5.32;;;10.60;99.90;;;;;;5114968;27;20142;-88
2021/12/17 14:20:52;;;;;;;10.65;5.57;;;10.60;99.90;;;;;;5114689;27;20077;-89
2021/12/17 14:23:20;;;;;;;11.00;5.57;;;10.60;99.90;;;;;;5097589;27;20046;-88
2021/12/17 14:25:50;;;;;;;11.77;5.53;;;10.60;99.90;;;;;;5115302;27;20051;-89
2021/12/17 14:28:21;;;;;;;10.38;4.95;;;10.60;99.90;;;;;;5133401;27;20112;-88
2021/12/17 14:31:13;;;;;;;8.00;4.07;;;10.60;99.90;;;;;;5133784;27;20043;-88
2021/12/17 14:33:42;;;;;;;8.80;4.35;;;10.60;99.90;;;;;;5097715;27;20058;-88
2021/12/17 14:36:12;;;;;;;10.48;5.57;;;10.60;99.90;;;;;;5098041;27;20035;-89
2021/12/17 14:38:44;;;;;;;11.75;5.25;;;10.60;99.90;;;;;;5114508;27;20035;-87
2021/12/17 14:41:24;;;;;;;9.32;4.25;;;10.60;99.90;;;;;;5097808;27;20050;-89
2021/12/17 14:44:09;;;;;;;10.15;4.72;;;10.50;99.90;;;;;;5097172;27;20035;-88
2021/12/17 14:46:46;;;;;;;11.15;5.28;;;10.50;99.90;;;;;;5114573;27;20503;-88
2021/12/17 14:57:12;;;;;;;9.43;5.38;;;10.50;99.90;;;;;;5114573;27;20373;-88
2021/12/17 15:05:24;;;;;;;9.00;4.00;;;10.50;99.90;;;;;;5132238;27;20039;-88
2021/12/17 15:07:52;;;;;;;8.57;4.10;;;10.50;99.90;;;;;;5150405;27;20046;-87
2021/12/17 15:10:23;;;;;;;10.55;3.95;;;10.50;99.90;;;;;;5107617;27;20043;-88
2021/12/17 15:12:50;;;;;;;9.57;4.28;;;10.50;99.90;;;;;;5120778;27;20121;-88
2021/12/17 15:15:22;;;;;;;8.05;3.90;;;10.40;99.90;;;;;;5097865;27;20039;-88
2021/12/17 15:17:50;;;;;;;9.82;3.45;;;10.40;99.90;;;;;;5133166;27;20043;-88
2021/12/17 15:20:21;;;;;;;6.93;2.85;;;10.40;99.90;;;;;;5132157;27;20430;-88
2021/12/17 15:22:48;;;;;;;7.65;2.97;;;10.40;99.90;;;;;;5131178;27;20045;-88
2021/12/17 15:25:15;;;;;;;6.35;2.50;;;10.40;99.90;;;;;;5131762;27;20051;-88
2021/12/17 15:27:41;;;;;;;6.38;2.63;;;10.40;99.90;;;;;;5132128;27;20099;-88
2021/12/17 15:30:17;;;;;;;6.82;2.60;;;10.40;99.90;;;;;;5132394;27;20035;-88
2021/12/17 15:32:43;;;;;;;7.18;2.58;;;10.40;99.90;;;;;;5114277;27;20042;-88
2021/12/17 15:35:12;;;;;;;7.32;2.45;;;10.30;99.90;;;;;;5130219;27;20039;-87
2021/12/17 15:37:39;;;;;;;7.55;2.50;;;10.30;99.90;;;;;;5113140;28;20042;-88
2021/12/17 15:40:05;;;;;;;7.35;2.67;;;10.30;99.90;;;;;;5096024;27;20776;-88
2021/12/17 15:42:31;;;;;;;8.57;3.65;;;10.30;99.90;;;;;;5096790;28;20089;-88
2021/12/17 15:44:57;;;;;;;7.70;3.22;;;10.30;99.90;;;;;;5130737;27;20519;-88
2021/12/17 15:47:22;;;;;;;8.00;2.97;;;10.30;99.90;;;;;;5111768;28;20047;-88
2021/12/17 15:49:48;;;;;;;7.63;3.40;;;10.30;99.90;;;;;;5096306;28;20420;-88
2021/12/17 15:52:14;;;;;;;7.53;3.17;;;10.30;99.90;;;;;;5131433;27;20557;-88
2021/12/17 15:54:40;;;;;;;8.45;3.65;;;10.30;99.90;;;;;;5112025;27;21027;-88
2021/12/17 15:57:06;;;;;;;7.30;3.58;;;10.30;99.90;;;;;;5109109;28;20043;-88
2021/12/17 15:59:32;;;;;;;7.80;3.28;;;10.30;99.90;;;;;;5092922;28;20123;-88
2021/12/17 16:01:59;;;;;;;8.00;3.78;;;10.20;99.90;;;;;;5076381;28;20043;-87
2021/12/17 16:04:27;;;;;;;8.02;4.03;;;10.30;99.90;;;;;;5092785;28;20035;-88
2021/12/17 16:06:52;;;;;;;7.43;3.80;;;10.20;99.90;;;;;;5079232;28;20114;-88
2021/12/17 16:18:11;;;;;;;9.43;4.70;;;10.20;99.90;;;;;;5127158;28;20487;-88